Latest Weather Observations for Omeo

IDV60801

Issued at 4:35 pm EST Thursday 17 April 2014 (issued every 30 minutes, with the page automatically refreshed every 10 minutes)

About weather observations | Map of weather stations | Latest weather observations for VIC | Other Formats
Station Details ID: 083090 Name: OMEO Lat: -37.10 Lon: 147.60 Height: 689.8 m
Data from the previous 72 hours. | See also: Recent months at Omeo
Date/Time
EST
Temp
°C
App
Temp
°C
Dew
Point
Rel
Hum
%
Delta-T
°C
Wind Press
QNH
hPa
Press
MSL
hPa
Rain
since 9 am
mm
Dir
 
Spd
km/h
Gust
km/h
Spd
kts
Gust
kts
17/04:30pm 16.9 14.0 8.3 57 4.5 SE 13 17 7 9 1019.7 - 0.0
17/04:00pm 18.1 16.6 9.2 56 4.8 SE 7 13 4 7 1019.7 - 0.0
17/03:30pm 18.4 16.9 8.4 52 5.3 SE 6 11 3 6 1019.9 - 0.0
17/03:00pm 18.4 16.4 8.7 53 5.2 ESE 9 13 5 7 1020.1 1019.4 0.0
17/02:30pm 18.4 16.6 8.1 51 5.5 S 7 15 4 8 1020.2 - 0.0
17/02:00pm 18.1 16.0 8.1 52 5.3 SSE 9 15 5 8 1020.3 - 0.0
17/01:30pm 17.6 15.9 8.5 55 4.8 NNW 7 11 4 6 1020.4 - 0.0
17/01:00pm 17.6 15.6 8.5 55 4.8 ESE 9 17 5 9 1020.7 - 0.0
17/12:30pm 16.8 15.1 7.7 55 4.7 NE 6 7 3 4 1021.1 - 0.0
17/12:00pm 17.2 15.5 8.4 56 4.7 ESE 7 13 4 7 1021.6 1021.0 0.0
17/11:30am 16.1 14.6 8.3 60 4.1 ESE 6 11 3 6 1022.0 - 0.0
17/11:00am 14.5 12.7 9.5 72 2.7 N 9 13 5 7 1022.4 - 0.0
17/10:30am 12.8 11.2 8.7 76 2.1 N 7 11 4 6 1022.5 - 0.0
17/10:00am 11.6 9.4 7.9 78 1.9 NNW 9 13 5 7 1022.5 - 0.0
17/09:30am 10.3 8.0 7.4 82 1.4 N 9 13 5 7 1022.6 - 0.0
17/09:00am 8.1 5.8 7.3 95 0.4 NNW 9 15 5 8 1022.8 1022.1 0.0
17/08:30am 6.8 4.7 6.7 99 0.0 NNW 7 9 4 5 1022.9 - 0.0
17/08:00am 6.1 3.9 6.0 99 0.0 N 7 11 4 6 1022.8 - 0.0
17/07:30am 6.1 4.0 6.0 99 0.0 NNW 6 9 3 5 1022.5 - 0.0
17/07:00am 5.8 4.8 5.7 99 0.0 CALM 0 0 0 0 1022.1 - 0.0
17/06:30am 5.7 4.7 5.6 99 0.0 CALM 0 0 0 0 1021.8 - 0.0
17/06:00am 5.3 4.2 5.0 98 0.1 SSE 0 0 0 0 1021.6 1021.0 0.0
17/05:30am 5.3 4.2 5.0 98 0.1 CALM 0 0 0 0 1021.3 - 0.0
17/05:00am 5.3 4.2 5.0 98 0.1 CALM 0 0 0 0 1021.1 - 0.0
17/04:30am 5.1 3.9 4.8 98 0.1 CALM 0 0 0 0 1021.0 - 0.0
17/04:00am 5.6 4.5 5.3 98 0.1 CALM 0 0 0 0 1020.8 - 0.0
17/03:30am 5.4 4.3 5.1 98 0.1 CALM 0 0 0 0 1020.6 - 0.0
17/03:00am 5.5 4.4 5.1 97 0.2 CALM 0 0 0 0 1020.7 1020.1 0.0
17/02:30am 5.7 4.6 5.3 97 0.2 CALM 0 0 0 0 1020.6 - 0.0
17/02:00am 6.6 5.7 6.2 97 0.2 CALM 0 0 0 0 1020.8 - 0.0
17/01:30am 6.7 5.8 6.1 96 0.3 CALM 0 4 0 2 1021.0 - 0.0
17/01:00am 7.4 6.6 6.7 95 0.3 CALM 0 0 0 0 1021.0 - 0.0
17/12:30am 8.0 6.6 7.1 94 0.4 SW 4 7 2 4 1021.0 - 0.0
17/12:00am 8.5 7.5 7.3 92 0.6 W 2 6 1 3 1021.1 1020.5 0.0
 
Date/Time
EST
Temp
°C
App
Temp
°C
Dew
Point
Rel
Hum
%
Delta-T
°C
Wind Press
QNH
hPa
Press
MSL
hPa
Rain
since 9 am
mm
Dir
 
Spd
km/h
Gust
km/h
Spd
kts
Gust
kts
16/11:30pm 9.2 7.6 7.8 91 0.7 W 6 9 3 5 1021.4 - 0.0
16/11:00pm 9.5 8.3 8.1 91 0.7 SSW 4 9 2 5 1021.5 - 0.0
16/10:30pm 9.3 8.1 8.1 92 0.6 SSW 4 7 2 4 1021.5 - 0.0
16/10:00pm 9.7 8.5 8.1 90 0.8 SSW 4 9 2 5 1021.5 - 0.0
16/09:30pm 10.2 8.6 8.6 90 0.8 SSE 7 9 4 5 1021.6 - 0.0
16/09:00pm 9.9 8.2 8.2 89 0.9 SSW 7 9 4 5 1021.3 1020.6 0.0
16/08:30pm 9.8 8.6 7.9 88 1.0 S 4 7 2 4 1021.3 - 0.0
16/08:00pm 10.1 9.6 7.7 85 1.2 SE 0 0 0 0 1021.0 - 0.0
16/07:30pm 11.0 9.4 8.0 82 1.5 S 6 9 3 5 1020.6 - 0.0
16/07:00pm 11.7 9.6 8.2 79 1.8 S 9 13 5 7 1020.5 - 0.0
16/06:30pm 12.2 10.5 8.3 77 2.0 S 7 11 4 6 1020.3 - 0.0
16/06:00pm 12.4 10.3 8.3 76 2.1 S 9 17 5 9 1019.9 1019.2 0.0
16/05:30pm 12.7 10.2 8.2 74 2.3 SSE 11 17 6 9 1019.5 - 0.0
16/05:00pm 14.4 11.6 8.4 67 3.1 SE 13 19 7 10 1019.3 - 0.0
16/04:30pm 15.3 13.1 9.2 67 3.2 SE 11 17 6 9 1019.2 - 0.0
16/04:00pm 16.2 14.1 8.4 60 4.1 SE 9 15 5 8 1019.0 - 0.0
16/03:30pm 16.7 15.7 8.9 60 4.2 S 4 17 2 9 1019.1 - 0.0
16/03:00pm 17.1 16.7 8.3 56 4.6 CALM 0 6 0 3 1019.2 1018.6 0.0
16/02:30pm 17.1 15.1 7.2 52 5.1 NW 7 11 4 6 1019.3 - 0.0
16/02:00pm 17.5 14.8 7.5 52 5.2 NNW 11 17 6 9 1019.4 - 0.0
16/01:30pm 17.1 14.4 7.5 53 5.0 N 11 15 6 8 1019.7 - 0.0
16/01:00pm 17.0 14.6 8.7 58 4.4 N 11 17 6 9 1020.1 - 0.0
16/12:30pm 16.1 13.8 7.3 56 4.5 N 9 15 5 8 1020.5 - 0.0
16/12:00pm 15.1 12.4 7.4 60 3.9 NNW 11 17 6 9 1020.9 1020.3 0.0
16/11:30am 14.1 11.4 7.4 64 3.4 N 11 15 6 8 1021.3 - 0.0
16/11:00am 12.8 10.6 7.9 72 2.5 N 9 13 5 7 1021.7 - 0.0
16/10:30am 11.4 9.2 7.9 79 1.8 N 9 13 5 7 1022.0 - 0.0
16/10:00am 9.7 7.7 7.1 84 1.3 N 7 11 4 6 1022.3 - 0.0
16/09:30am 7.1 4.6 6.4 95 0.3 N 9 13 5 7 1022.6 - 0.0
16/09:00am 6.1 3.4 5.7 97 0.2 N 9 13 5 7 1022.9 1022.3 0.0
16/08:30am 6.6 4.1 4.9 89 0.8 N 7 9 4 5 1023.0 - 0.0
16/08:00am 5.9 4.9 5.8 99 0.0 CALM 0 0 0 0 1023.0 - 0.0
16/07:30am 3.1 1.6 3.0 99 0.0 CALM 0 0 0 0 1023.0 - 0.0
16/07:00am 2.4 0.7 2.1 98 0.1 CALM 0 0 0 0 1022.6 - 0.0
16/06:30am 2.3 -0.5 2.0 98 0.1 SE 6 7 3 4 1022.3 - 0.0
16/06:00am 2.6 1.0 2.2 97 0.2 CALM 0 0 0 0 1022.2 1021.6 0.0
16/05:30am 2.6 0.9 2.0 96 0.2 CALM 0 0 0 0 1022.2 - 0.0
16/05:00am 3.3 1.7 2.7 96 0.3 CALM 0 4 0 2 1022.2 - 0.0
16/04:30am 4.0 1.8 3.4 96 0.3 S 4 6 2 3 1022.1 - 0.0
16/04:00am 4.3 1.8 3.7 96 0.3 S 6 7 3 4 1022.2 - 0.0
16/03:30am 4.9 3.6 4.3 96 0.3 CALM 0 0 0 0 1022.1 - 0.0
16/03:00am 5.7 4.2 5.0 95 0.3 WSW 2 7 1 4 1022.4 1021.8 0.0
16/02:30am 6.5 5.5 5.6 94 0.4 CALM 0 4 0 2 1022.5 - 0.0
16/02:00am 7.3 6.4 6.2 93 0.5 CALM 0 0 0 0 1022.8 - 0.0
16/01:30am 8.2 7.0 6.5 89 0.8 WSW 2 7 1 4 1023.1 - 0.0
16/01:00am 8.8 7.4 7.4 91 0.7 S 4 7 2 4 1023.3 - 0.0
16/12:30am 9.1 7.9 7.9 92 0.6 SSW 4 6 2 3 1023.5 - 0.0
16/12:00am 8.9 7.9 7.4 90 0.7 SSE 2 6 1 3 1023.7 1023.1 0.0
 
Date/Time
EST
Temp
°C
App
Temp
°C
Dew
Point
Rel
Hum
%
Delta-T
°C
Wind Press
QNH
hPa
Press
MSL
hPa
Rain
since 9 am
mm
Dir
 
Spd
km/h
Gust
km/h
Spd
kts
Gust
kts
15/11:30pm 9.6 9.0 7.5 87 1.0 CALM 0 0 0 0 1023.8 - 0.0
15/11:00pm 10.1 9.6 8.0 87 1.1 CALM 0 0 0 0 1024.2 - 0.0
15/10:30pm 10.2 8.6 8.0 86 1.1 SSW 6 7 3 4 1024.5 - 0.0
15/10:00pm 10.2 8.0 8.0 86 1.1 S 9 13 5 7 1024.7 - 0.0
15/09:30pm 10.1 8.3 8.0 87 1.1 SSW 7 11 4 6 1024.5 - 0.0
15/09:00pm 10.3 8.2 8.4 88 1.0 S 9 13 5 7 1024.4 1023.8 0.0
15/08:30pm 10.3 8.3 8.6 89 0.9 SSE 9 15 5 8 1024.1 - 0.0
15/08:00pm 10.2 7.8 8.6 90 0.8 SSE 11 17 6 9 1023.9 - 0.0
15/07:30pm 10.3 7.6 8.9 91 0.7 SSE 13 19 7 10 1023.9 - 0.0
15/07:00pm 10.5 8.0 9.7 95 0.4 SSE 13 22 7 12 1023.8 - 0.0
15/06:30pm 10.8 8.4 9.9 94 0.5 SSE 13 19 7 10 1023.6 - 0.0
15/06:00pm 11.4 9.3 9.7 89 0.9 SSE 11 17 6 9 1023.3 1022.7 0.0
15/05:30pm 11.6 9.4 9.5 87 1.1 SSE 11 19 6 10 1023.1 - 0.0
15/05:00pm 12.3 10.6 9.7 84 1.4 SSE 9 17 5 9 1023.0 - 0.0
15/04:30pm 12.3 9.3 9.3 82 1.6 SSE 15 20 8 11 1022.8 - 0.0
15/04:00pm 12.8 9.5 9.4 80 1.8 SSE 17 22 9 12 1022.8 - 0.0
15/03:30pm 13.9 11.5 10.1 78 2.0 SE 13 19 7 10 1022.9 - 0.0
15/03:00pm 15.0 12.4 10.6 75 2.4 SE 15 20 8 11 1022.9 1022.3 0.0
15/02:30pm 13.5 11.1 10.1 80 1.8 SE 13 20 7 11 1023.0 - 0.0
15/02:00pm 13.4 10.7 9.1 75 2.3 SE 13 20 7 11 1022.8 - 0.0
15/01:30pm 14.5 11.5 9.1 70 2.9 SE 15 24 8 13 1022.6 - 0.0
15/01:00pm 14.9 12.2 9.1 68 3.1 SE 13 20 7 11 1022.9 - 0.0
15/12:30pm 15.6 13.5 9.7 68 3.2 SE 11 19 6 10 1023.2 - 0.0
15/12:00pm 14.1 10.8 7.9 66 3.2 SE 15 19 8 10 1023.7 1023.1 0.0
15/11:30am 14.3 11.9 8.5 68 3.0 SE 11 17 6 9 1024.0 - 0.0
15/11:00am 14.3 12.7 7.8 65 3.3 W 6 9 3 5 1024.1 - 0.0
15/10:30am 12.6 11.4 8.1 74 2.3 ESE 4 7 2 4 1024.2 - 0.0
15/10:00am 9.9 7.7 6.4 79 1.7 WNW 7 11 4 6 1024.6 - 0.0
15/09:30am 9.6 9.0 7.2 85 1.2 CALM 0 6 0 3 1024.7 - 0.0
15/09:00am 8.7 8.1 7.2 90 0.7 CALM 0 0 0 0 1024.7 1024.1 0.6
15/08:30am 7.6 5.6 6.4 92 0.6 WNW 6 7 3 4 1024.8 - 0.6
15/08:00am 6.5 5.5 5.8 95 0.3 CALM 0 0 0 0 1024.6 - 0.6
15/07:30am 5.8 4.0 5.4 97 0.2 NNW 4 7 2 4 1024.4 - 0.6
15/07:00am 5.2 4.1 4.9 98 0.1 CALM 0 0 0 0 1024.1 - 0.6
15/06:30am 4.6 3.3 4.3 98 0.1 CALM 0 0 0 0 1023.9 - 0.6
15/06:00am 4.0 2.6 3.6 97 0.2 CALM 0 0 0 0 1023.8 1023.2 0.6
15/05:30am 4.0 2.6 3.4 96 0.3 CALM 0 0 0 0 1023.8 - 0.6
15/05:00am 4.7 3.4 4.1 96 0.3 CALM 0 7 0 4 1023.5 - 0.6
15/04:30am 5.2 4.0 4.5 95 0.3 CALM 0 0 0 0 1023.2 - 0.6
15/04:00am 5.8 4.7 4.9 94 0.4 CALM 0 0 0 0 1023.3 - 0.6
15/03:30am 6.0 3.7 5.0 93 0.5 SW 6 9 3 5 1023.2 - 0.6
15/03:00am 6.0 4.2 5.4 96 0.3 S 4 9 2 5 1023.6 1023.0 0.6
15/02:30am 5.8 4.0 5.2 96 0.3 SW 4 9 2 5 1023.8 - 0.6
15/02:00am 6.2 4.4 5.5 95 0.3 S 4 7 2 4 1023.8 - 0.6
15/01:30am 6.9 5.9 5.8 93 0.5 CALM 0 4 0 2 1023.9 - 0.6
15/01:00am 8.1 7.3 6.7 91 0.7 CALM 0 0 0 0 1023.9 - 0.6
15/12:30am 8.9 7.9 7.5 91 0.7 SSE 2 6 1 3 1023.9 - 0.6
15/12:00am 9.3 8.8 7.9 91 0.7 CALM 0 0 0 0 1024.0 1023.5 0.6
 
Date/Time
EST
Temp
°C
App
Temp
°C
Dew
Point
Rel
Hum
%
Delta-T
°C
Wind Press
QNH
hPa
Press
MSL
hPa
Rain
since 9 am
mm
Dir
 
Spd
km/h
Gust
km/h
Spd
kts
Gust
kts
14/11:30pm 9.2 8.7 8.0 92 0.6 CALM 0 0 0 0 1024.0 - 0.6
14/11:00pm 9.3 7.7 7.9 91 0.7 SSE 6 9 3 5 1024.1 - 0.6
14/10:30pm 9.6 7.5 8.2 91 0.7 SE 9 11 5 6 1024.4 - 0.6
14/10:00pm 9.8 7.7 8.2 90 0.8 SSE 9 15 5 8 1024.4 - 0.6
14/09:30pm 9.9 7.7 8.0 88 1.0 SSE 9 15 5 8 1024.4 - 0.6
14/09:00pm 10.2 8.4 8.0 86 1.1 SSE 7 13 4 7 1024.5 1023.9 0.6
14/08:30pm 10.2 9.0 8.1 87 1.1 S 4 7 2 4 1024.2 - 0.6
14/08:00pm 10.3 8.7 8.1 86 1.1 S 6 9 3 5 1024.1 - 0.6
14/07:30pm 10.3 7.8 8.1 86 1.1 SSE 11 19 6 10 1023.8 - 0.6
14/07:00pm 10.0 7.8 7.8 86 1.1 SSE 9 17 5 9 1023.7 - 0.6
14/06:30pm 9.2 7.4 7.0 86 1.1 SSE 6 9 3 5 1023.3 - 0.6
14/06:00pm 9.3 8.4 6.0 80 1.6 CALM 0 7 0 4 1023.0 1022.4 0.6
14/05:30pm 10.5 7.9 6.3 75 2.0 SSE 9 11 5 6 1022.6 - 0.6
14/05:00pm 11.6 8.6 6.1 69 2.7 SE 11 19 6 10 1022.5 - 0.6

Other Formats:

Comma delimited format used in spreadsheet applications
http://www.bom.gov.au/fwo/IDV60801/IDV60801.94908.axf

JavaScript Object Notation format (JSON) in row-major order
http://www.bom.gov.au/fwo/IDV60801/IDV60801.94908.json